sensor_id;sensor_type;location;lat;lon;timestamp;temperature;humidity
13426;DHT22;6785;57.918;12.530;2023-03-21T00:01:54;4.80;99.90
13426;DHT22;6785;57.918;12.530;2023-03-21T00:04:24;4.80;99.90
13426;DHT22;6785;57.918;12.530;2023-03-21T00:06:52;4.80;99.90
13426;DHT22;6785;57.918;12.530;2023-03-21T00:09:19;4.80;99.90
13426;DHT22;6785;57.918;12.530;2023-03-21T00:11:46;4.70;99.90
13426;DHT22;6785;57.918;12.530;2023-03-21T00:14:13;4.70;99.90
13426;DHT22;6785;57.918;12.530;2023-03-21T00:16:43;4.70;99.90
13426;DHT22;6785;57.918;12.530;2023-03-21T00:19:14;4.80;99.90
13426;DHT22;6785;57.918;12.530;2023-03-21T00:21:42;4.80;99.90
13426;DHT22;6785;57.918;12.530;2023-03-21T00:24:10;4.80;99.90
13426;DHT22;6785;57.918;12.530;2023-03-21T00:26:36;4.80;99.90
13426;DHT22;6785;57.918;12.530;2023-03-21T00:29:03;4.80;99.90
13426;DHT22;6785;57.918;12.530;2023-03-21T00:31:30;4.80;99.90
13426;DHT22;6785;57.918;12.530;2023-03-21T00:33:57;4.80;99.90
13426;DHT22;6785;57.918;12.530;2023-03-21T00:36:24;4.80;99.90
13426;DHT22;6785;57.918;12.530;2023-03-21T00:38:53;4.70;99.90
13426;DHT22;6785;57.918;12.530;2023-03-21T00:41:20;4.70;99.90
13426;DHT22;6785;57.918;12.530;2023-03-21T00:43:46;4.70;99.90
13426;DHT22;6785;57.918;12.530;2023-03-21T00:46:13;4.70;99.90
13426;DHT22;6785;57.918;12.530;2023-03-21T00:48:40;4.70;99.90
13426;DHT22;6785;57.918;12.530;2023-03-21T00:51:11;4.70;99.90
13426;DHT22;6785;57.918;12.530;2023-03-21T00:53:39;4.70;99.90
13426;DHT22;6785;57.918;12.530;2023-03-21T00:56:08;4.80;99.90
13426;DHT22;6785;57.918;12.530;2023-03-21T00:58:35;4.80;99.90
13426;DHT22;6785;57.918;12.530;2023-03-21T01:01:03;4.80;99.90
13426;DHT22;6785;57.918;12.530;2023-03-21T01:03:32;4.80;99.90
13426;DHT22;6785;57.918;12.530;2023-03-21T01:06:08;4.80;99.90
13426;DHT22;6785;57.918;12.530;2023-03-21T01:08:39;4.80;99.90
13426;DHT22;6785;57.918;12.530;2023-03-21T01:11:09;4.80;99.90
13426;DHT22;6785;57.918;12.530;2023-03-21T01:13:36;4.80;99.90
13426;DHT22;6785;57.918;12.530;2023-03-21T01:16:04;4.80;99.90
13426;DHT22;6785;57.918;12.530;2023-03-21T01:18:32;4.80;99.90
13426;DHT22;6785;57.918;12.530;2023-03-21T01:21:00;4.80;99.90
13426;DHT22;6785;57.918;12.530;2023-03-21T01:23:28;4.80;99.90
13426;DHT22;6785;57.918;12.530;2023-03-21T01:25:55;4.70;99.90
13426;DHT22;6785;57.918;12.530;2023-03-21T01:28:26;4.80;99.90
13426;DHT22;6785;57.918;12.530;2023-03-21T01:30:53;4.70;99.90
13426;DHT22;6785;57.918;12.530;2023-03-21T01:33:21;4.70;99.90
13426;DHT22;6785;57.918;12.530;2023-03-21T01:35:48;4.70;99.90
13426;DHT22;6785;57.918;12.530;2023-03-21T01:38:14;4.70;99.90
13426;DHT22;6785;57.918;12.530;2023-03-21T01:40:43;4.70;99.90
13426;DHT22;6785;57.918;12.530;2023-03-21T01:43:20;4.60;99.90
13426;DHT22;6785;57.918;12.530;2023-03-21T01:48:52;4.70;99.90
13426;DHT22;6785;57.918;12.530;2023-03-21T01:51:20;4.60;99.90
13426;DHT22;6785;57.918;12.530;2023-03-21T01:53:47;4.60;99.90
13426;DHT22;6785;57.918;12.530;2023-03-21T01:56:22;4.60;99.90
13426;DHT22;6785;57.918;12.530;2023-03-21T01:58:51;4.60;99.90
13426;DHT22;6785;57.918;12.530;2023-03-21T02:01:20;4.60;99.90
13426;DHT22;6785;57.918;12.530;2023-03-21T02:03:50;4.60;99.90
13426;DHT22;6785;57.918;12.530;2023-03-21T02:06:26;4.60;99.90
13426;DHT22;6785;57.918;12.530;2023-03-21T02:09:03;4.60;99.90
13426;DHT22;6785;57.918;12.530;2023-03-21T02:11:33;4.50;99.90
13426;DHT22;6785;57.918;12.530;2023-03-21T02:14:00;4.60;99.90
13426;DHT22;6785;57.918;12.530;2023-03-21T02:16:41;4.60;99.90
13426;DHT22;6785;57.918;12.530;2023-03-21T02:19:36;4.60;99.90
13426;DHT22;6785;57.918;12.530;2023-03-21T02:25:37;4.60;99.90
13426;DHT22;6785;57.918;12.530;2023-03-21T02:28:11;4.60;99.90
13426;DHT22;6785;57.918;12.530;2023-03-21T02:31:09;4.60;99.90
13426;DHT22;6785;57.918;12.530;2023-03-21T02:33:59;4.50;99.90
13426;DHT22;6785;57.918;12.530;2023-03-21T02:39:28;4.50;99.90
13426;DHT22;6785;57.918;12.530;2023-03-21T02:42:03;4.50;99.90
13426;DHT22;6785;57.918;12.530;2023-03-21T02:44:36;4.60;99.90
13426;DHT22;6785;57.918;12.530;2023-03-21T02:47:07;4.50;99.90
13426;DHT22;6785;57.918;12.530;2023-03-21T02:49:39;4.40;99.90
13426;DHT22;6785;57.918;12.530;2023-03-21T02:52:10;4.40;99.90
13426;DHT22;6785;57.918;12.530;2023-03-21T02:54:42;4.40;99.90
13426;DHT22;6785;57.918;12.530;2023-03-21T02:57:10;4.40;99.90
13426;DHT22;6785;57.918;12.530;2023-03-21T02:59:38;4.30;99.90
13426;DHT22;6785;57.918;12.530;2023-03-21T03:02:06;4.30;99.90
13426;DHT22;6785;57.918;12.530;2023-03-21T03:04:33;4.30;99.90
13426;DHT22;6785;57.918;12.530;2023-03-21T03:07:12;4.30;99.90
13426;DHT22;6785;57.918;12.530;2023-03-21T03:09:53;4.30;99.90
13426;DHT22;6785;57.918;12.530;2023-03-21T03:12:30;4.30;99.90
13426;DHT22;6785;57.918;12.530;2023-03-21T03:15:06;4.40;99.90
13426;DHT22;6785;57.918;12.530;2023-03-21T03:17:45;4.40;99.90
13426;DHT22;6785;57.918;12.530;2023-03-21T03:20:22;4.40;99.90
13426;DHT22;6785;57.918;12.530;2023-03-21T03:22:55;4.40;99.90
13426;DHT22;6785;57.918;12.530;2023-03-21T03:25:29;4.40;99.90
13426;DHT22;6785;57.918;12.530;2023-03-21T03:27:59;4.40;99.90
13426;DHT22;6785;57.918;12.530;2023-03-21T03:30:27;4.40;99.90
13426;DHT22;6785;57.918;12.530;2023-03-21T03:32:56;4.40;99.90
13426;DHT22;6785;57.918;12.530;2023-03-21T03:35:25;4.40;99.90
13426;DHT22;6785;57.918;12.530;2023-03-21T03:37:55;4.50;99.90
13426;DHT22;6785;57.918;12.530;2023-03-21T03:40:27;4.40;99.90
13426;DHT22;6785;57.918;12.530;2023-03-21T03:42:59;4.50;99.90
13426;DHT22;6785;57.918;12.530;2023-03-21T03:45:31;4.50;99.90
13426;DHT22;6785;57.918;12.530;2023-03-21T03:48:03;4.50;99.90
13426;DHT22;6785;57.918;12.530;2023-03-21T03:50:35;4.50;99.90
13426;DHT22;6785;57.918;12.530;2023-03-21T03:53:06;4.50;99.90
13426;DHT22;6785;57.918;12.530;2023-03-21T03:55:40;4.50;99.90
13426;DHT22;6785;57.918;12.530;2023-03-21T03:58:07;4.50;99.90
13426;DHT22;6785;57.918;12.530;2023-03-21T04:00:34;4.50;99.90
13426;DHT22;6785;57.918;12.530;2023-03-21T04:03:01;4.50;99.90
13426;DHT22;6785;57.918;12.530;2023-03-21T04:05:27;4.50;99.90
13426;DHT22;6785;57.918;12.530;2023-03-21T04:07:54;4.50;99.90
13426;DHT22;6785;57.918;12.530;2023-03-21T04:10:21;4.50;99.90
13426;DHT22;6785;57.918;12.530;2023-03-21T04:12:49;4.50;99.90
13426;DHT22;6785;57.918;12.530;2023-03-21T04:15:16;4.50;99.90
13426;DHT22;6785;57.918;12.530;2023-03-21T04:17:45;4.50;99.90
13426;DHT22;6785;57.918;12.530;2023-03-21T04:20:12;4.40;99.90
13426;DHT22;6785;57.918;12.530;2023-03-21T04:22:39;4.30;99.90
13426;DHT22;6785;57.918;12.530;2023-03-21T04:25:06;4.20;99.90
13426;DHT22;6785;57.918;12.530;2023-03-21T04:27:33;4.20;99.90
13426;DHT22;6785;57.918;12.530;2023-03-21T04:30:02;4.10;99.90
13426;DHT22;6785;57.918;12.530;2023-03-21T04:32:29;4.10;99.90
13426;DHT22;6785;57.918;12.530;2023-03-21T04:34:58;4.00;99.90
13426;DHT22;6785;57.918;12.530;2023-03-21T04:37:25;4.00;99.90
13426;DHT22;6785;57.918;12.530;2023-03-21T04:39:53;4.00;99.90
13426;DHT22;6785;57.918;12.530;2023-03-21T04:42:20;3.90;99.90
13426;DHT22;6785;57.918;12.530;2023-03-21T04:44:47;3.80;99.90
13426;DHT22;6785;57.918;12.530;2023-03-21T04:47:15;3.80;99.90
13426;DHT22;6785;57.918;12.530;2023-03-21T04:49:44;4.10;99.90
13426;DHT22;6785;57.918;12.530;2023-03-21T04:52:13;3.90;99.90
13426;DHT22;6785;57.918;12.530;2023-03-21T04:54:41;3.90;99.90
13426;DHT22;6785;57.918;12.530;2023-03-21T04:57:08;3.90;99.90
13426;DHT22;6785;57.918;12.530;2023-03-21T04:59:35;3.90;99.90
13426;DHT22;6785;57.918;12.530;2023-03-21T05:02:02;3.80;99.90
13426;DHT22;6785;57.918;12.530;2023-03-21T05:04:30;3.80;99.90
13426;DHT22;6785;57.918;12.530;2023-03-21T05:06:57;3.90;99.90
13426;DHT22;6785;57.918;12.530;2023-03-21T05:09:24;3.90;99.90
13426;DHT22;6785;57.918;12.530;2023-03-21T05:11:52;4.00;99.90
13426;DHT22;6785;57.918;12.530;2023-03-21T05:14:20;3.90;99.90
13426;DHT22;6785;57.918;12.530;2023-03-21T05:16:48;3.90;99.90
13426;DHT22;6785;57.918;12.530;2023-03-21T05:19:21;3.90;99.90
13426;DHT22;6785;57.918;12.530;2023-03-21T05:21:50;3.90;99.90
13426;DHT22;6785;57.918;12.530;2023-03-21T05:24:19;3.90;99.90
13426;DHT22;6785;57.918;12.530;2023-03-21T05:26:46;3.90;99.90
13426;DHT22;6785;57.918;12.530;2023-03-21T05:29:17;3.80;99.90
13426;DHT22;6785;57.918;12.530;2023-03-21T05:31:44;3.80;99.90
13426;DHT22;6785;57.918;12.530;2023-03-21T05:34:12;3.80;99.90
13426;DHT22;6785;57.918;12.530;2023-03-21T05:36:39;3.90;99.90
13426;DHT22;6785;57.918;12.530;2023-03-21T05:39:07;3.90;99.90
13426;DHT22;6785;57.918;12.530;2023-03-21T05:41:34;3.90;99.90
13426;DHT22;6785;57.918;12.530;2023-03-21T05:44:00;3.90;99.90
13426;DHT22;6785;57.918;12.530;2023-03-21T05:46:27;3.90;99.90
13426;DHT22;6785;57.918;12.530;2023-03-21T05:48:54;4.00;99.90
13426;DHT22;6785;57.918;12.530;2023-03-21T05:51:21;4.00;99.90
13426;DHT22;6785;57.918;12.530;2023-03-21T05:53:47;4.00;99.90
13426;DHT22;6785;57.918;12.530;2023-03-21T05:56:16;4.00;99.90
13426;DHT22;6785;57.918;12.530;2023-03-21T05:58:42;3.90;99.90
13426;DHT22;6785;57.918;12.530;2023-03-21T06:01:09;3.90;99.90
13426;DHT22;6785;57.918;12.530;2023-03-21T06:03:36;3.90;99.90
13426;DHT22;6785;57.918;12.530;2023-03-21T06:06:03;3.90;99.90
13426;DHT22;6785;57.918;12.530;2023-03-21T06:08:31;3.90;99.90
13426;DHT22;6785;57.918;12.530;2023-03-21T06:10:58;3.90;99.90
13426;DHT22;6785;57.918;12.530;2023-03-21T06:13:26;3.80;99.90
13426;DHT22;6785;57.918;12.530;2023-03-21T06:15:53;3.70;99.90
13426;DHT22;6785;57.918;12.530;2023-03-21T06:18:20;3.80;99.90
13426;DHT22;6785;57.918;12.530;2023-03-21T06:20:46;3.80;99.90
13426;DHT22;6785;57.918;12.530;2023-03-21T06:23:13;3.80;99.90
13426;DHT22;6785;57.918;12.530;2023-03-21T06:25:40;3.80;99.90
13426;DHT22;6785;57.918;12.530;2023-03-21T06:28:07;3.70;99.90
13426;DHT22;6785;57.918;12.530;2023-03-21T06:30:35;3.70;99.90
13426;DHT22;6785;57.918;12.530;2023-03-21T06:33:01;3.70;99.90
13426;DHT22;6785;57.918;12.530;2023-03-21T06:35:28;3.70;99.90
13426;DHT22;6785;57.918;12.530;2023-03-21T06:37:55;3.70;99.90
13426;DHT22;6785;57.918;12.530;2023-03-21T06:40:23;3.70;99.90
13426;DHT22;6785;57.918;12.530;2023-03-21T06:42:49;3.70;99.90
13426;DHT22;6785;57.918;12.530;2023-03-21T06:45:16;3.70;99.90
13426;DHT22;6785;57.918;12.530;2023-03-21T06:47:44;3.70;99.90
13426;DHT22;6785;57.918;12.530;2023-03-21T06:50:11;3.80;99.90
13426;DHT22;6785;57.918;12.530;2023-03-21T06:52:38;3.90;99.90
13426;DHT22;6785;57.918;12.530;2023-03-21T06:55:05;3.90;99.90
13426;DHT22;6785;57.918;12.530;2023-03-21T06:57:32;3.90;99.90
13426;DHT22;6785;57.918;12.530;2023-03-21T06:59:59;3.80;99.90
13426;DHT22;6785;57.918;12.530;2023-03-21T07:02:25;3.90;99.90
13426;DHT22;6785;57.918;12.530;2023-03-21T07:04:54;3.90;99.90
13426;DHT22;6785;57.918;12.530;2023-03-21T07:07:23;3.80;99.90
13426;DHT22;6785;57.918;12.530;2023-03-21T07:09:50;3.80;99.90
13426;DHT22;6785;57.918;12.530;2023-03-21T07:12:17;3.90;99.90
13426;DHT22;6785;57.918;12.530;2023-03-21T07:14:43;3.90;99.90
13426;DHT22;6785;57.918;12.530;2023-03-21T07:17:10;3.80;99.90
13426;DHT22;6785;57.918;12.530;2023-03-21T07:19:37;3.90;99.90
13426;DHT22;6785;57.918;12.530;2023-03-21T07:22:05;4.00;99.90
13426;DHT22;6785;57.918;12.530;2023-03-21T07:24:32;4.00;99.90
13426;DHT22;6785;57.918;12.530;2023-03-21T07:26:58;4.00;99.90
13426;DHT22;6785;57.918;12.530;2023-03-21T07:29:25;4.00;99.90
13426;DHT22;6785;57.918;12.530;2023-03-21T07:31:52;4.00;99.90
13426;DHT22;6785;57.918;12.530;2023-03-21T07:34:18;4.00;99.90
13426;DHT22;6785;57.918;12.530;2023-03-21T07:36:45;4.00;99.90
13426;DHT22;6785;57.918;12.530;2023-03-21T07:39:13;3.90;99.90
13426;DHT22;6785;57.918;12.530;2023-03-21T07:41:40;4.00;99.90
13426;DHT22;6785;57.918;12.530;2023-03-21T07:44:06;3.90;99.90
13426;DHT22;6785;57.918;12.530;2023-03-21T07:46:33;3.90;99.90
13426;DHT22;6785;57.918;12.530;2023-03-21T07:49:00;4.00;99.90
13426;DHT22;6785;57.918;12.530;2023-03-21T07:51:27;4.10;99.90
13426;DHT22;6785;57.918;12.530;2023-03-21T07:53:53;4.00;99.90
13426;DHT22;6785;57.918;12.530;2023-03-21T07:56:21;4.00;99.90
13426;DHT22;6785;57.918;12.530;2023-03-21T07:58:48;4.20;99.90
13426;DHT22;6785;57.918;12.530;2023-03-21T08:01:15;4.20;99.90
13426;DHT22;6785;57.918;12.530;2023-03-21T08:03:41;4.20;99.90
13426;DHT22;6785;57.918;12.530;2023-03-21T08:06:09;4.10;99.90
13426;DHT22;6785;57.918;12.530;2023-03-21T08:08:36;4.20;99.90
13426;DHT22;6785;57.918;12.530;2023-03-21T08:11:03;4.30;99.90
13426;DHT22;6785;57.918;12.530;2023-03-21T08:13:31;4.30;99.90
13426;DHT22;6785;57.918;12.530;2023-03-21T08:15:58;4.30;99.90
13426;DHT22;6785;57.918;12.530;2023-03-21T08:18:24;4.40;99.90
13426;DHT22;6785;57.918;12.530;2023-03-21T08:20:52;4.30;99.90
13426;DHT22;6785;57.918;12.530;2023-03-21T08:23:19;4.40;99.90
13426;DHT22;6785;57.918;12.530;2023-03-21T08:25:50;4.40;99.90
13426;DHT22;6785;57.918;12.530;2023-03-21T08:28:17;4.40;99.90
13426;DHT22;6785;57.918;12.530;2023-03-21T08:30:45;4.30;99.90
13426;DHT22;6785;57.918;12.530;2023-03-21T08:33:12;4.40;99.90
13426;DHT22;6785;57.918;12.530;2023-03-21T08:35:39;4.30;99.90
13426;DHT22;6785;57.918;12.530;2023-03-21T08:38:06;4.40;99.90
13426;DHT22;6785;57.918;12.530;2023-03-21T08:40:33;4.40;99.90
13426;DHT22;6785;57.918;12.530;2023-03-21T08:43:00;4.40;99.90
13426;DHT22;6785;57.918;12.530;2023-03-21T08:45:27;4.50;99.90
13426;DHT22;6785;57.918;12.530;2023-03-21T08:47:55;4.50;99.90
13426;DHT22;6785;57.918;12.530;2023-03-21T08:50:24;4.50;99.90
13426;DHT22;6785;57.918;12.530;2023-03-21T08:52:54;4.50;99.90
13426;DHT22;6785;57.918;12.530;2023-03-21T08:55:20;4.50;99.90
13426;DHT22;6785;57.918;12.530;2023-03-21T08:57:47;4.50;99.90
13426;DHT22;6785;57.918;12.530;2023-03-21T09:00:16;4.50;99.90
13426;DHT22;6785;57.918;12.530;2023-03-21T09:02:46;4.50;99.90
13426;DHT22;6785;57.918;12.530;2023-03-21T09:05:15;4.60;99.90
13426;DHT22;6785;57.918;12.530;2023-03-21T09:07:43;4.70;99.90
13426;DHT22;6785;57.918;12.530;2023-03-21T09:10:12;4.50;99.90
13426;DHT22;6785;57.918;12.530;2023-03-21T09:12:40;4.50;99.90
13426;DHT22;6785;57.918;12.530;2023-03-21T09:15:07;4.60;99.90
13426;DHT22;6785;57.918;12.530;2023-03-21T09:17:34;4.60;99.90
13426;DHT22;6785;57.918;12.530;2023-03-21T09:20:02;4.50;99.90
13426;DHT22;6785;57.918;12.530;2023-03-21T09:22:37;4.60;99.90
13426;DHT22;6785;57.918;12.530;2023-03-21T09:25:04;4.60;99.90
13426;DHT22;6785;57.918;12.530;2023-03-21T09:27:32;4.50;99.90
13426;DHT22;6785;57.918;12.530;2023-03-21T09:30:00;4.60;99.90
13426;DHT22;6785;57.918;12.530;2023-03-21T09:32:27;4.50;99.90
13426;DHT22;6785;57.918;12.530;2023-03-21T09:34:54;4.60;99.90
13426;DHT22;6785;57.918;12.530;2023-03-21T09:37:21;4.60;99.90
13426;DHT22;6785;57.918;12.530;2023-03-21T09:39:50;4.70;99.90
13426;DHT22;6785;57.918;12.530;2023-03-21T09:42:28;4.70;99.90
13426;DHT22;6785;57.918;12.530;2023-03-21T09:45:06;4.70;99.90
13426;DHT22;6785;57.918;12.530;2023-03-21T09:47:40;4.80;99.90
13426;DHT22;6785;57.918;12.530;2023-03-21T09:50:15;4.70;99.90
13426;DHT22;6785;57.918;12.530;2023-03-21T09:52:46;4.70;99.90
13426;DHT22;6785;57.918;12.530;2023-03-21T09:55:19;4.70;99.90
13426;DHT22;6785;57.918;12.530;2023-03-21T09:57:49;4.80;99.90
13426;DHT22;6785;57.918;12.530;2023-03-21T10:00:24;4.80;99.90
13426;DHT22;6785;57.918;12.530;2023-03-21T10:03:03;4.90;99.90
13426;DHT22;6785;57.918;12.530;2023-03-21T10:05:32;4.90;99.90
13426;DHT22;6785;57.918;12.530;2023-03-21T10:08:02;4.80;99.90
13426;DHT22;6785;57.918;12.530;2023-03-21T10:10:35;4.80;99.90
13426;DHT22;6785;57.918;12.530;2023-03-21T10:13:04;4.80;99.90
13426;DHT22;6785;57.918;12.530;2023-03-21T10:15:32;4.80;99.90
13426;DHT22;6785;57.918;12.530;2023-03-21T10:18:00;4.80;99.90
13426;DHT22;6785;57.918;12.530;2023-03-21T10:20:29;4.90;99.90
13426;DHT22;6785;57.918;12.530;2023-03-21T10:22:58;4.90;99.90
13426;DHT22;6785;57.918;12.530;2023-03-21T10:25:30;4.90;99.90
13426;DHT22;6785;57.918;12.530;2023-03-21T10:28:00;5.00;99.90
13426;DHT22;6785;57.918;12.530;2023-03-21T10:30:35;5.00;99.90
13426;DHT22;6785;57.918;12.530;2023-03-21T10:33:06;5.10;99.90
13426;DHT22;6785;57.918;12.530;2023-03-21T10:35:35;5.00;99.90
13426;DHT22;6785;57.918;12.530;2023-03-21T10:38:04;5.00;99.90
13426;DHT22;6785;57.918;12.530;2023-03-21T10:40:31;5.00;99.90
13426;DHT22;6785;57.918;12.530;2023-03-21T10:43:16;5.10;99.90
13426;DHT22;6785;57.918;12.530;2023-03-21T10:45:45;5.00;99.90
13426;DHT22;6785;57.918;12.530;2023-03-21T10:48:13;5.10;99.90
13426;DHT22;6785;57.918;12.530;2023-03-21T10:50:40;5.10;99.90
13426;DHT22;6785;57.918;12.530;2023-03-21T10:53:17;5.00;99.90
13426;DHT22;6785;57.918;12.530;2023-03-21T10:55:46;5.00;99.90
13426;DHT22;6785;57.918;12.530;2023-03-21T10:58:17;5.10;99.90
13426;DHT22;6785;57.918;12.530;2023-03-21T11:00:54;5.20;99.90
13426;DHT22;6785;57.918;12.530;2023-03-21T11:03:26;5.20;99.90
13426;DHT22;6785;57.918;12.530;2023-03-21T11:05:59;5.30;99.90
13426;DHT22;6785;57.918;12.530;2023-03-21T11:08:27;5.40;99.90
13426;DHT22;6785;57.918;12.530;2023-03-21T11:11:00;5.30;99.90
13426;DHT22;6785;57.918;12.530;2023-03-21T11:13:35;5.40;99.90
13426;DHT22;6785;57.918;12.530;2023-03-21T11:16:06;5.40;99.90
13426;DHT22;6785;57.918;12.530;2023-03-21T11:18:40;5.40;99.90
13426;DHT22;6785;57.918;12.530;2023-03-21T11:21:09;5.40;99.90
13426;DHT22;6785;57.918;12.530;2023-03-21T11:23:40;5.40;99.90
13426;DHT22;6785;57.918;12.530;2023-03-21T11:26:10;5.40;99.90
13426;DHT22;6785;57.918;12.530;2023-03-21T11:28:39;5.50;99.90
13426;DHT22;6785;57.918;12.530;2023-03-21T11:31:07;5.60;99.90
13426;DHT22;6785;57.918;12.530;2023-03-21T11:33:36;5.70;99.90
13426;DHT22;6785;57.918;12.530;2023-03-21T11:36:06;5.80;99.90
13426;DHT22;6785;57.918;12.530;2023-03-21T11:38:36;5.90;99.90
13426;DHT22;6785;57.918;12.530;2023-03-21T11:41:04;6.00;99.90
13426;DHT22;6785;57.918;12.530;2023-03-21T11:43:33;6.10;99.90
13426;DHT22;6785;57.918;12.530;2023-03-21T11:46:05;6.30;99.90
13426;DHT22;6785;57.918;12.530;2023-03-21T11:48:37;6.40;99.90
13426;DHT22;6785;57.918;12.530;2023-03-21T11:51:11;6.60;99.90
13426;DHT22;6785;57.918;12.530;2023-03-21T11:53:45;6.70;99.90
13426;DHT22;6785;57.918;12.530;2023-03-21T11:56:24;6.80;99.90
13426;DHT22;6785;57.918;12.530;2023-03-21T12:02:02;7.00;99.90
13426;DHT22;6785;57.918;12.530;2023-03-21T12:04:41;7.10;99.90
13426;DHT22;6785;57.918;12.530;2023-03-21T12:07:23;7.10;99.90
13426;DHT22;6785;57.918;12.530;2023-03-21T12:09:59;7.00;99.90
13426;DHT22;6785;57.918;12.530;2023-03-21T12:12:36;7.00;99.90
13426;DHT22;6785;57.918;12.530;2023-03-21T12:15:11;7.10;99.90
13426;DHT22;6785;57.918;12.530;2023-03-21T12:17:48;7.10;99.90
13426;DHT22;6785;57.918;12.530;2023-03-21T12:20:25;7.10;99.90
13426;DHT22;6785;57.918;12.530;2023-03-21T12:23:06;7.00;99.90
13426;DHT22;6785;57.918;12.530;2023-03-21T12:25:37;7.10;99.90
13426;DHT22;6785;57.918;12.530;2023-03-21T12:28:14;7.20;99.90
13426;DHT22;6785;57.918;12.530;2023-03-21T12:30:53;7.30;99.90
13426;DHT22;6785;57.918;12.530;2023-03-21T12:33:41;7.40;99.90
13426;DHT22;6785;57.918;12.530;2023-03-21T12:36:22;7.60;99.90
13426;DHT22;6785;57.918;12.530;2023-03-21T12:38:59;7.80;99.90
13426;DHT22;6785;57.918;12.530;2023-03-21T12:41:32;8.00;99.90
13426;DHT22;6785;57.918;12.530;2023-03-21T12:44:02;8.00;99.90
13426;DHT22;6785;57.918;12.530;2023-03-21T12:46:35;8.10;99.90
13426;DHT22;6785;57.918;12.530;2023-03-21T12:49:09;8.20;99.90
13426;DHT22;6785;57.918;12.530;2023-03-21T12:51:42;8.20;99.90
13426;DHT22;6785;57.918;12.530;2023-03-21T12:54:16;8.20;99.90
13426;DHT22;6785;57.918;12.530;2023-03-21T12:56:48;8.20;99.90
13426;DHT22;6785;57.918;12.530;2023-03-21T12:59:26;8.20;99.90
13426;DHT22;6785;57.918;12.530;2023-03-21T13:01:58;8.20;99.90
13426;DHT22;6785;57.918;12.530;2023-03-21T13:04:41;8.20;99.90
13426;DHT22;6785;57.918;12.530;2023-03-21T13:07:12;8.20;99.90
13426;DHT22;6785;57.918;12.530;2023-03-21T13:09:42;8.20;99.90
13426;DHT22;6785;57.918;12.530;2023-03-21T13:12:38;8.30;99.90
13426;DHT22;6785;57.918;12.530;2023-03-21T13:15:21;8.30;99.90
13426;DHT22;6785;57.918;12.530;2023-03-21T13:17:57;8.30;99.90
13426;DHT22;6785;57.918;12.530;2023-03-21T13:20:36;8.30;99.90
13426;DHT22;6785;57.918;12.530;2023-03-21T13:23:05;8.20;99.90
13426;DHT22;6785;57.918;12.530;2023-03-21T13:25:40;8.30;99.90
13426;DHT22;6785;57.918;12.530;2023-03-21T13:28:17;8.40;99.90
13426;DHT22;6785;57.918;12.530;2023-03-21T13:30:45;8.40;99.90
13426;DHT22;6785;57.918;12.530;2023-03-21T13:33:14;8.50;99.90
13426;DHT22;6785;57.918;12.530;2023-03-21T13:35:44;8.50;99.90
13426;DHT22;6785;57.918;12.530;2023-03-21T13:38:14;8.60;99.90
13426;DHT22;6785;57.918;12.530;2023-03-21T13:40:46;8.70;99.90
13426;DHT22;6785;57.918;12.530;2023-03-21T13:43:32;8.70;99.90
13426;DHT22;6785;57.918;12.530;2023-03-21T13:46:05;8.70;99.90
13426;DHT22;6785;57.918;12.530;2023-03-21T13:48:41;8.80;99.90
13426;DHT22;6785;57.918;12.530;2023-03-21T13:51:09;8.80;99.90
13426;DHT22;6785;57.918;12.530;2023-03-21T13:53:36;8.70;99.90
13426;DHT22;6785;57.918;12.530;2023-03-21T13:56:18;8.90;99.90
13426;DHT22;6785;57.918;12.530;2023-03-21T13:58:54;8.90;99.90
13426;DHT22;6785;57.918;12.530;2023-03-21T14:01:30;8.80;99.90
13426;DHT22;6785;57.918;12.530;2023-03-21T14:04:02;8.80;99.90
13426;DHT22;6785;57.918;12.530;2023-03-21T14:06:35;8.90;99.90
13426;DHT22;6785;57.918;12.530;2023-03-21T14:09:03;8.80;99.90
13426;DHT22;6785;57.918;12.530;2023-03-21T14:11:31;8.90;99.90
13426;DHT22;6785;57.918;12.530;2023-03-21T14:13:59;8.90;99.90
13426;DHT22;6785;57.918;12.530;2023-03-21T14:16:28;8.70;99.90
13426;DHT22;6785;57.918;12.530;2023-03-21T14:18:58;8.50;99.90
13426;DHT22;6785;57.918;12.530;2023-03-21T14:21:26;8.40;99.90
13426;DHT22;6785;57.918;12.530;2023-03-21T14:24:03;8.10;99.90
13426;DHT22;6785;57.918;12.530;2023-03-21T14:26:32;7.90;99.90
13426;DHT22;6785;57.918;12.530;2023-03-21T14:29:01;7.90;99.90
13426;DHT22;6785;57.918;12.530;2023-03-21T14:31:29;7.90;99.90
13426;DHT22;6785;57.918;12.530;2023-03-21T14:33:58;7.80;99.90
13426;DHT22;6785;57.918;12.530;2023-03-21T14:36:28;7.90;99.90
13426;DHT22;6785;57.918;12.530;2023-03-21T14:39:03;7.90;99.90
13426;DHT22;6785;57.918;12.530;2023-03-21T14:41:32;7.90;99.90
13426;DHT22;6785;57.918;12.530;2023-03-21T14:44:21;7.90;99.90
13426;DHT22;6785;57.918;12.530;2023-03-21T14:46:51;7.90;99.90
13426;DHT22;6785;57.918;12.530;2023-03-21T14:49:20;7.70;99.90
13426;DHT22;6785;57.918;12.530;2023-03-21T14:51:50;7.70;99.90
13426;DHT22;6785;57.918;12.530;2023-03-21T14:54:20;7.70;99.90
13426;DHT22;6785;57.918;12.530;2023-03-21T14:56:49;7.70;99.90
13426;DHT22;6785;57.918;12.530;2023-03-21T14:59:20;7.70;99.90
13426;DHT22;6785;57.918;12.530;2023-03-21T15:01:49;7.80;99.90
13426;DHT22;6785;57.918;12.530;2023-03-21T15:04:17;7.90;99.90
13426;DHT22;6785;57.918;12.530;2023-03-21T15:06:55;7.90;99.90
13426;DHT22;6785;57.918;12.530;2023-03-21T15:09:25;7.90;99.90
13426;DHT22;6785;57.918;12.530;2023-03-21T15:11:54;7.90;99.90
13426;DHT22;6785;57.918;12.530;2023-03-21T15:14:25;7.90;99.90
13426;DHT22;6785;57.918;12.530;2023-03-21T15:16:52;7.90;99.90
13426;DHT22;6785;57.918;12.530;2023-03-21T15:19:30;7.90;99.90
13426;DHT22;6785;57.918;12.530;2023-03-21T15:22:01;7.90;99.90
13426;DHT22;6785;57.918;12.530;2023-03-21T15:24:34;8.00;99.90
13426;DHT22;6785;57.918;12.530;2023-03-21T15:27:03;8.00;99.90
13426;DHT22;6785;57.918;12.530;2023-03-21T15:29:32;8.00;99.90
13426;DHT22;6785;57.918;12.530;2023-03-21T15:32:03;8.00;99.90
13426;DHT22;6785;57.918;12.530;2023-03-21T15:34:30;8.00;99.90
13426;DHT22;6785;57.918;12.530;2023-03-21T15:37:00;8.00;99.90
13426;DHT22;6785;57.918;12.530;2023-03-21T15:39:27;8.00;99.90
13426;DHT22;6785;57.918;12.530;2023-03-21T15:42:02;7.90;99.90
13426;DHT22;6785;57.918;12.530;2023-03-21T15:44:30;7.90;99.90
13426;DHT22;6785;57.918;12.530;2023-03-21T15:46:57;7.90;99.90
13426;DHT22;6785;57.918;12.530;2023-03-21T15:49:27;7.90;99.90
13426;DHT22;6785;57.918;12.530;2023-03-21T15:52:00;7.80;99.90
13426;DHT22;6785;57.918;12.530;2023-03-21T15:54:29;7.80;99.90
13426;DHT22;6785;57.918;12.530;2023-03-21T15:56:59;7.80;99.90
13426;DHT22;6785;57.918;12.530;2023-03-21T15:59:32;7.80;99.90
13426;DHT22;6785;57.918;12.530;2023-03-21T16:01:59;7.80;99.90
13426;DHT22;6785;57.918;12.530;2023-03-21T16:04:26;7.80;99.90
13426;DHT22;6785;57.918;12.530;2023-03-21T16:07:02;7.80;99.90
13426;DHT22;6785;57.918;12.530;2023-03-21T16:09:38;7.70;99.90
13426;DHT22;6785;57.918;12.530;2023-03-21T16:12:11;7.70;99.90
13426;DHT22;6785;57.918;12.530;2023-03-21T16:14:38;7.60;99.90
13426;DHT22;6785;57.918;12.530;2023-03-21T16:17:22;7.50;99.90